sensor_id;sensor_type;location;lat;lon;timestamp;P1;durP1;ratioP1;P2;durP2;ratioP2
34521;SDS011;25561;48.888;8.736;2022-07-29T05:33:35;9.00;;;4.20;;
34521;SDS011;25561;48.888;8.736;2022-07-29T05:36:37;7.75;;;4.05;;
34521;SDS011;25561;48.888;8.736;2022-07-29T05:39:39;6.78;;;3.72;;
34521;SDS011;25561;48.888;8.736;2022-07-29T05:42:49;5.75;;;3.45;;
34521;SDS011;25561;48.888;8.736;2022-07-29T05:45:51;5.80;;;3.35;;
34521;SDS011;25561;48.888;8.736;2022-07-29T05:48:53;5.30;;;3.42;;
34521;SDS011;25561;48.888;8.736;2022-07-29T05:51:54;6.22;;;3.88;;
34521;SDS011;25561;48.888;8.736;2022-07-29T05:54:56;7.50;;;3.22;;
34521;SDS011;25561;48.888;8.736;2022-07-29T05:57:58;7.85;;;3.17;;
34521;SDS011;25561;48.888;8.736;2022-07-29T06:01:00;4.07;;;3.20;;
34521;SDS011;25561;48.888;8.736;2022-07-29T06:04:02;4.38;;;3.05;;
34521;SDS011;25561;48.888;8.736;2022-07-29T06:07:04;3.97;;;3.10;;
34521;SDS011;25561;48.888;8.736;2022-07-29T06:10:06;5.57;;;3.38;;
34521;SDS011;25561;48.888;8.736;2022-07-29T06:13:09;6.05;;;3.47;;
34521;SDS011;25561;48.888;8.736;2022-07-29T06:50:05;6.10;;;3.58;;
34521;SDS011;25561;48.888;8.736;2022-07-29T06:53:08;8.00;;;3.90;;
34521;SDS011;25561;48.888;8.736;2022-07-29T06:56:10;5.93;;;3.90;;
34521;SDS011;25561;48.888;8.736;2022-07-29T06:59:13;9.45;;;4.20;;
34521;SDS011;25561;48.888;8.736;2022-07-29T07:02:15;5.75;;;3.10;;
34521;SDS011;25561;48.888;8.736;2022-07-29T07:05:17;8.45;;;3.80;;
34521;SDS011;25561;48.888;8.736;2022-07-29T07:08:19;7.85;;;3.97;;
34521;SDS011;25561;48.888;8.736;2022-07-29T07:11:22;6.93;;;4.05;;
34521;SDS011;25561;48.888;8.736;2022-07-29T07:14:23;7.95;;;3.95;;
34521;SDS011;25561;48.888;8.736;2022-07-29T07:17:27;8.50;;;3.70;;
34521;SDS011;25561;48.888;8.736;2022-07-29T07:20:29;4.45;;;3.13;;
34521;SDS011;25561;48.888;8.736;2022-07-29T07:23:31;6.55;;;3.67;;
34521;SDS011;25561;48.888;8.736;2022-07-29T07:26:33;6.60;;;3.65;;
34521;SDS011;25561;48.888;8.736;2022-07-29T07:29:35;5.43;;;3.78;;
34521;SDS011;25561;48.888;8.736;2022-07-29T07:32:37;8.32;;;3.78;;
34521;SDS011;25561;48.888;8.736;2022-07-29T07:35:39;7.88;;;3.92;;
34521;SDS011;25561;48.888;8.736;2022-07-29T07:38:42;7.88;;;3.92;;
34521;SDS011;25561;48.888;8.736;2022-07-29T07:41:44;7.55;;;4.50;;
34521;SDS011;25561;48.888;8.736;2022-07-29T07:44:46;5.60;;;4.65;;
34521;SDS011;25561;48.888;8.736;2022-07-29T07:48:09;7.53;;;4.65;;
34521;SDS011;25561;48.888;8.736;2022-07-29T07:51:11;7.28;;;3.72;;
34521;SDS011;25561;48.888;8.736;2022-07-29T07:54:13;6.03;;;3.78;;
34521;SDS011;25561;48.888;8.736;2022-07-29T07:57:15;9.15;;;4.13;;
34521;SDS011;25561;48.888;8.736;2022-07-29T08:00:17;5.97;;;3.63;;
34521;SDS011;25561;48.888;8.736;2022-07-29T08:03:22;7.97;;;4.72;;
34521;SDS011;25561;48.888;8.736;2022-07-29T08:06:24;8.88;;;3.67;;
34521;SDS011;25561;48.888;8.736;2022-07-29T08:09:26;6.55;;;3.92;;
34521;SDS011;25561;48.888;8.736;2022-07-29T08:12:31;10.32;;;3.55;;
34521;SDS011;25561;48.888;8.736;2022-07-29T08:15:33;5.55;;;3.67;;
34521;SDS011;25561;48.888;8.736;2022-07-29T08:18:35;5.35;;;3.45;;
34521;SDS011;25561;48.888;8.736;2022-07-29T08:21:36;9.13;;;3.42;;
34521;SDS011;25561;48.888;8.736;2022-07-29T08:24:39;9.27;;;4.18;;
34521;SDS011;25561;48.888;8.736;2022-07-29T08:27:44;7.43;;;3.67;;
34521;SDS011;25561;48.888;8.736;2022-07-29T08:30:45;5.15;;;3.70;;
34521;SDS011;25561;48.888;8.736;2022-07-29T08:33:47;10.52;;;3.38;;
34521;SDS011;25561;48.888;8.736;2022-07-29T08:36:49;6.43;;;3.30;;
34521;SDS011;25561;48.888;8.736;2022-07-29T08:39:51;9.32;;;3.25;;
34521;SDS011;25561;48.888;8.736;2022-07-29T08:42:53;6.72;;;3.50;;
34521;SDS011;25561;48.888;8.736;2022-07-29T08:45:55;5.75;;;3.33;;
34521;SDS011;25561;48.888;8.736;2022-07-29T08:48:57;7.63;;;3.75;;
34521;SDS011;25561;48.888;8.736;2022-07-29T08:51:59;7.40;;;3.55;;
34521;SDS011;25561;48.888;8.736;2022-07-29T08:55:02;7.90;;;4.00;;
34521;SDS011;25561;48.888;8.736;2022-07-29T08:58:05;8.57;;;3.33;;
34521;SDS011;25561;48.888;8.736;2022-07-29T09:01:08;5.43;;;3.15;;
34521;SDS011;25561;48.888;8.736;2022-07-29T09:04:12;6.97;;;3.25;;
34521;SDS011;25561;48.888;8.736;2022-07-29T09:07:16;9.43;;;3.25;;
34521;SDS011;25561;48.888;8.736;2022-07-29T09:10:19;7.38;;;3.15;;
34521;SDS011;25561;48.888;8.736;2022-07-29T09:13:22;3.92;;;3.28;;
34521;SDS011;25561;48.888;8.736;2022-07-29T09:16:24;7.70;;;2.97;;
34521;SDS011;25561;48.888;8.736;2022-07-29T09:19:45;20.35;;;3.42;;
34521;SDS011;25561;48.888;8.736;2022-07-29T09:22:47;4.75;;;3.03;;
34521;SDS011;25561;48.888;8.736;2022-07-29T09:25:51;6.60;;;3.38;;
34521;SDS011;25561;48.888;8.736;2022-07-29T09:28:53;5.85;;;3.25;;
34521;SDS011;25561;48.888;8.736;2022-07-29T09:31:55;6.85;;;3.00;;
34521;SDS011;25561;48.888;8.736;2022-07-29T09:35:31;12.40;;;2.95;;
34521;SDS011;25561;48.888;8.736;2022-07-29T09:38:23;8.02;;;3.70;;
34521;SDS011;25561;48.888;8.736;2022-07-29T09:41:26;7.70;;;3.03;;
34521;SDS011;25561;48.888;8.736;2022-07-29T09:44:40;10.65;;;3.72;;
34521;SDS011;25561;48.888;8.736;2022-07-29T09:47:44;7.72;;;3.25;;
34521;SDS011;25561;48.888;8.736;2022-07-29T09:50:48;11.07;;;3.10;;
34521;SDS011;25561;48.888;8.736;2022-07-29T09:53:50;5.63;;;3.05;;
34521;SDS011;25561;48.888;8.736;2022-07-29T09:56:54;15.68;;;3.20;;
34521;SDS011;25561;48.888;8.736;2022-07-29T09:59:59;7.05;;;3.55;;
34521;SDS011;25561;48.888;8.736;2022-07-29T10:03:04;4.03;;;3.00;;
34521;SDS011;25561;48.888;8.736;2022-07-29T10:06:07;8.25;;;3.97;;
34521;SDS011;25561;48.888;8.736;2022-07-29T10:09:10;6.95;;;3.22;;
34521;SDS011;25561;48.888;8.736;2022-07-29T10:12:12;5.78;;;2.88;;
34521;SDS011;25561;48.888;8.736;2022-07-29T10:15:15;8.95;;;3.20;;
34521;SDS011;25561;48.888;8.736;2022-07-29T10:18:17;5.38;;;2.78;;
34521;SDS011;25561;48.888;8.736;2022-07-29T10:21:21;3.90;;;2.30;;
34521;SDS011;25561;48.888;8.736;2022-07-29T10:24:37;3.78;;;2.50;;
34521;SDS011;25561;48.888;8.736;2022-07-29T10:27:39;5.68;;;3.00;;
34521;SDS011;25561;48.888;8.736;2022-07-29T10:30:41;6.82;;;2.72;;
34521;SDS011;25561;48.888;8.736;2022-07-29T10:33:48;5.85;;;2.72;;
34521;SDS011;25561;48.888;8.736;2022-07-29T10:44:43;10.30;;;2.78;;
34521;SDS011;25561;48.888;8.736;2022-07-29T10:47:47;6.50;;;3.25;;
34521;SDS011;25561;48.888;8.736;2022-07-29T10:50:54;7.00;;;3.05;;
34521;SDS011;25561;48.888;8.736;2022-07-29T10:53:58;6.65;;;2.97;;
34521;SDS011;25561;48.888;8.736;2022-07-29T10:57:32;10.27;;;3.10;;
34521;SDS011;25561;48.888;8.736;2022-07-29T11:00:48;8.85;;;3.30;;
34521;SDS011;25561;48.888;8.736;2022-07-29T11:03:51;9.90;;;3.08;;
34521;SDS011;25561;48.888;8.736;2022-07-29T11:13:47;5.25;;;2.95;;
34521;SDS011;25561;48.888;8.736;2022-07-29T11:17:04;7.35;;;2.95;;
34521;SDS011;25561;48.888;8.736;2022-07-29T11:20:39;6.80;;;3.05;;
34521;SDS011;25561;48.888;8.736;2022-07-29T11:24:11;4.78;;;2.55;;
34521;SDS011;25561;48.888;8.736;2022-07-29T11:27:31;10.13;;;3.38;;
34521;SDS011;25561;48.888;8.736;2022-07-29T11:30:46;6.43;;;3.08;;
34521;SDS011;25561;48.888;8.736;2022-07-29T11:33:51;5.97;;;2.70;;
34521;SDS011;25561;48.888;8.736;2022-07-29T11:40:14;12.73;;;3.67;;
34521;SDS011;25561;48.888;8.736;2022-07-29T11:46:49;9.20;;;3.60;;
34521;SDS011;25561;48.888;8.736;2022-07-29T11:49:55;12.82;;;3.03;;
34521;SDS011;25561;48.888;8.736;2022-07-29T11:53:00;10.90;;;3.70;;
34521;SDS011;25561;48.888;8.736;2022-07-29T11:56:08;9.90;;;2.90;;
34521;SDS011;25561;48.888;8.736;2022-07-29T11:59:17;8.20;;;3.30;;
34521;SDS011;25561;48.888;8.736;2022-07-29T12:02:20;6.68;;;3.00;;
34521;SDS011;25561;48.888;8.736;2022-07-29T12:05:42;13.57;;;2.97;;
34521;SDS011;25561;48.888;8.736;2022-07-29T12:08:52;6.63;;;3.05;;
34521;SDS011;25561;48.888;8.736;2022-07-29T12:11:56;10.50;;;3.05;;
34521;SDS011;25561;48.888;8.736;2022-07-29T12:15:20;7.10;;;2.90;;
34521;SDS011;25561;48.888;8.736;2022-07-29T12:19:00;6.50;;;2.90;;
34521;SDS011;25561;48.888;8.736;2022-07-29T12:22:04;9.75;;;3.17;;
34521;SDS011;25561;48.888;8.736;2022-07-29T12:25:08;5.30;;;2.80;;
34521;SDS011;25561;48.888;8.736;2022-07-29T12:28:35;12.98;;;3.00;;
34521;SDS011;25561;48.888;8.736;2022-07-29T12:31:39;8.85;;;3.05;;
34521;SDS011;25561;48.888;8.736;2022-07-29T12:34:45;12.07;;;2.70;;
34521;SDS011;25561;48.888;8.736;2022-07-29T12:37:47;5.05;;;2.55;;
34521;SDS011;25561;48.888;8.736;2022-07-29T12:40:52;9.23;;;2.75;;
34521;SDS011;25561;48.888;8.736;2022-07-29T12:43:55;5.63;;;2.75;;
34521;SDS011;25561;48.888;8.736;2022-07-29T12:47:01;7.35;;;2.33;;
34521;SDS011;25561;48.888;8.736;2022-07-29T12:50:11;6.28;;;2.45;;
34521;SDS011;25561;48.888;8.736;2022-07-29T12:53:24;6.50;;;2.50;;
34521;SDS011;25561;48.888;8.736;2022-07-29T12:56:27;10.00;;;2.90;;
34521;SDS011;25561;48.888;8.736;2022-07-29T12:59:42;10.77;;;3.15;;
34521;SDS011;25561;48.888;8.736;2022-07-29T13:02:44;7.18;;;2.38;;
34521;SDS011;25561;48.888;8.736;2022-07-29T13:05:56;7.78;;;2.67;;
34521;SDS011;25561;48.888;8.736;2022-07-29T13:09:00;3.67;;;2.17;;
34521;SDS011;25561;48.888;8.736;2022-07-29T13:12:07;3.88;;;2.30;;
34521;SDS011;25561;48.888;8.736;2022-07-29T13:15:12;8.15;;;2.50;;
34521;SDS011;25561;48.888;8.736;2022-07-29T13:18:32;7.95;;;2.72;;
34521;SDS011;25561;48.888;8.736;2022-07-29T13:21:37;5.90;;;2.50;;
34521;SDS011;25561;48.888;8.736;2022-07-29T13:24:55;12.10;;;2.53;;
34521;SDS011;25561;48.888;8.736;2022-07-29T13:27:58;5.20;;;2.67;;
34521;SDS011;25561;48.888;8.736;2022-07-29T13:31:01;7.35;;;2.20;;
34521;SDS011;25561;48.888;8.736;2022-07-29T13:34:03;9.40;;;2.42;;
34521;SDS011;25561;48.888;8.736;2022-07-29T13:37:05;7.53;;;2.65;;
34521;SDS011;25561;48.888;8.736;2022-07-29T13:40:07;10.25;;;2.50;;
34521;SDS011;25561;48.888;8.736;2022-07-29T13:43:11;3.25;;;1.70;;
34521;SDS011;25561;48.888;8.736;2022-07-29T13:46:13;4.13;;;2.05;;
34521;SDS011;25561;48.888;8.736;2022-07-29T13:49:15;8.55;;;2.33;;
34521;SDS011;25561;48.888;8.736;2022-07-29T13:52:17;17.08;;;2.10;;
34521;SDS011;25561;48.888;8.736;2022-07-29T13:55:19;7.32;;;1.80;;
34521;SDS011;25561;48.888;8.736;2022-07-29T13:58:21;4.32;;;1.70;;
34521;SDS011;25561;48.888;8.736;2022-07-29T14:01:23;3.58;;;1.67;;
34521;SDS011;25561;48.888;8.736;2022-07-29T14:04:25;9.07;;;2.20;;
34521;SDS011;25561;48.888;8.736;2022-07-29T14:07:27;7.05;;;1.65;;
34521;SDS011;25561;48.888;8.736;2022-07-29T14:10:29;5.65;;;1.92;;
34521;SDS011;25561;48.888;8.736;2022-07-29T14:13:31;7.65;;;1.90;;
34521;SDS011;25561;48.888;8.736;2022-07-29T14:16:33;5.15;;;2.00;;
34521;SDS011;25561;48.888;8.736;2022-07-29T14:19:42;25.88;;;3.47;;
34521;SDS011;25561;48.888;8.736;2022-07-29T14:22:44;12.77;;;2.15;;
34521;SDS011;25561;48.888;8.736;2022-07-29T14:25:46;5.13;;;1.70;;
34521;SDS011;25561;48.888;8.736;2022-07-29T14:28:49;7.38;;;2.30;;
34521;SDS011;25561;48.888;8.736;2022-07-29T14:31:51;5.25;;;2.13;;
34521;SDS011;25561;48.888;8.736;2022-07-29T14:34:53;3.47;;;1.65;;
34521;SDS011;25561;48.888;8.736;2022-07-29T14:37:55;13.63;;;2.10;;
34521;SDS011;25561;48.888;8.736;2022-07-29T14:40:57;3.95;;;1.60;;
34521;SDS011;25561;48.888;8.736;2022-07-29T14:43:59;2.20;;;1.40;;
34521;SDS011;25561;48.888;8.736;2022-07-29T14:47:01;4.25;;;2.00;;
34521;SDS011;25561;48.888;8.736;2022-07-29T14:50:08;5.15;;;2.00;;
34521;SDS011;25561;48.888;8.736;2022-07-29T14:53:10;3.58;;;1.60;;
34521;SDS011;25561;48.888;8.736;2022-07-29T14:56:14;3.03;;;1.83;;
34521;SDS011;25561;48.888;8.736;2022-07-29T14:59:36;4.05;;;1.85;;
34521;SDS011;25561;48.888;8.736;2022-07-29T15:02:38;3.67;;;1.95;;
34521;SDS011;25561;48.888;8.736;2022-07-29T15:05:59;7.45;;;2.33;;
34521;SDS011;25561;48.888;8.736;2022-07-29T15:09:01;8.30;;;1.90;;
34521;SDS011;25561;48.888;8.736;2022-07-29T15:12:03;8.48;;;2.38;;
34521;SDS011;25561;48.888;8.736;2022-07-29T15:15:06;6.05;;;2.08;;
34521;SDS011;25561;48.888;8.736;2022-07-29T15:18:08;7.45;;;2.13;;
34521;SDS011;25561;48.888;8.736;2022-07-29T15:21:10;4.47;;;1.85;;
34521;SDS011;25561;48.888;8.736;2022-07-29T15:24:12;4.80;;;2.20;;
34521;SDS011;25561;48.888;8.736;2022-07-29T15:27:14;7.93;;;1.70;;
34521;SDS011;25561;48.888;8.736;2022-07-29T15:30:16;6.90;;;1.90;;
34521;SDS011;25561;48.888;8.736;2022-07-29T15:33:33;4.90;;;1.77;;
34521;SDS011;25561;48.888;8.736;2022-07-29T15:36:35;6.90;;;2.53;;
34521;SDS011;25561;48.888;8.736;2022-07-29T15:39:54;5.57;;;1.67;;
34521;SDS011;25561;48.888;8.736;2022-07-29T15:43:03;6.60;;;1.52;;
34521;SDS011;25561;48.888;8.736;2022-07-29T15:46:07;4.25;;;1.70;;
34521;SDS011;25561;48.888;8.736;2022-07-29T15:49:30;7.70;;;1.60;;
34521;SDS011;25561;48.888;8.736;2022-07-29T15:52:49;4.65;;;1.60;;
34521;SDS011;25561;48.888;8.736;2022-07-29T15:55:51;3.28;;;1.90;;
34521;SDS011;25561;48.888;8.736;2022-07-29T15:58:53;5.18;;;2.03;;
